Time;durP1;ratioP1;P1;durP2;ratioP2;P2;SDS_P1;SDS_P2;PMS_P1;PMS_P2;Temp;Humidity;BMP_temperature;BMP_pressure;BME280_temperature;BME280_humidity;BME280_pressure;Samples;Min_cycle;Max_cycle;Signal;HPM_P1;HPM_P2
2021/03/07 00:01:46;;;;;;;1.40;0.20;;;1.90;84.70;;;;;;5071587;28;20203;-58
2021/03/07 00:04:12;;;;;;;1.43;0.30;;;1.90;84.50;;;;;;5053352;28;20205;-58
2021/03/07 00:06:37;;;;;;;1.50;0.20;;;1.90;85.20;;;;;;5054418;28;20196;-58
2021/03/07 00:09:03;;;;;;;1.50;0.30;;;1.90;85.60;;;;;;5047857;28;20660;-58
2021/03/07 00:11:28;;;;;;;1.40;0.20;;;1.90;85.10;;;;;;5053875;28;20288;-58
2021/03/07 00:13:54;;;;;;;1.43;0.20;;;1.90;85.10;;;;;;5051594;28;20197;-58
2021/03/07 00:16:19;;;;;;;1.40;0.20;;;1.90;84.70;;;;;;5053793;28;20285;-57
2021/03/07 00:18:45;;;;;;;1.43;0.30;;;1.90;84.50;;;;;;5054082;28;20182;-58
2021/03/07 00:21:10;;;;;;;1.50;0.20;;;1.90;84.90;;;;;;5053464;28;20188;-58
2021/03/07 00:23:36;;;;;;;1.50;0.20;;;1.80;85.00;;;;;;5052957;28;20205;-58
2021/03/07 00:26:02;;;;;;;1.43;0.20;;;1.80;85.10;;;;;;5052664;28;20208;-58
2021/03/07 00:28:27;;;;;;;1.40;0.20;;;1.80;85.80;;;;;;5052610;28;20699;-58
2021/03/07 00:30:53;;;;;;;1.40;0.20;;;1.80;86.00;;;;;;5043482;28;20251;-58
2021/03/07 00:33:18;;;;;;;1.73;1.23;;;1.80;86.50;;;;;;5051708;28;20201;-58
2021/03/07 00:35:44;;;;;;;1.40;0.20;;;1.80;86.40;;;;;;5052419;28;20670;-58
2021/03/07 00:38:09;;;;;;;1.47;0.20;;;1.90;86.40;;;;;;5048199;28;20261;-58
2021/03/07 00:40:35;;;;;;;2.27;1.90;;;1.90;85.80;;;;;;5050994;28;20185;-58
2021/03/07 00:43:00;;;;;;;1.40;0.20;;;2.00;85.30;;;;;;5048368;28;20212;-58
2021/03/07 00:45:27;;;;;;;3.03;2.83;;;1.90;85.60;;;;;;5053762;28;20192;-58
2021/03/07 00:47:52;;;;;;;1.40;0.20;;;1.90;85.60;;;;;;5052554;28;20268;-58
2021/03/07 00:50:24;;;;;;;1.40;0.20;;;2.00;86.00;;;;;;5053530;28;20213;-58
2021/03/07 00:52:49;;;;;;;1.40;0.20;;;2.00;86.10;;;;;;5050536;28;20205;-58
2021/03/07 00:55:15;;;;;;;1.43;0.20;;;2.00;85.80;;;;;;5053534;28;20181;-58
2021/03/07 00:57:41;;;;;;;1.40;0.20;;;2.00;85.40;;;;;;5051216;28;20203;-57
2021/03/07 01:00:15;;;;;;;1.40;0.20;;;1.80;85.60;;;;;;5051921;28;20544;-58
2021/03/07 01:02:40;;;;;;;1.40;0.30;;;1.90;86.10;;;;;;5050211;28;20321;-58
2021/03/07 01:05:07;;;;;;;1.40;0.20;;;1.90;86.20;;;;;;5045621;28;20660;-58
2021/03/07 01:07:33;;;;;;;1.40;0.20;;;1.80;85.90;;;;;;5052531;28;20181;-58
2021/03/07 01:09:59;;;;;;;1.40;0.20;;;1.80;86.10;;;;;;5051073;28;20189;-58
2021/03/07 01:12:25;;;;;;;1.45;0.20;;;1.80;85.80;;;;;;5052001;28;20213;-58
2021/03/07 01:14:50;;;;;;;1.43;0.20;;;1.70;86.80;;;;;;5051739;28;20648;-58
2021/03/07 01:17:16;;;;;;;1.60;0.60;;;1.70;87.50;;;;;;5052619;28;20224;-58
2021/03/07 01:19:42;;;;;;;1.40;0.20;;;1.70;87.10;;;;;;5052000;28;20185;-58
2021/03/07 01:22:08;;;;;;;1.40;0.20;;;1.70;86.30;;;;;;5051896;28;20192;-57
2021/03/07 01:24:34;;;;;;;1.40;0.20;;;1.60;86.60;;;;;;5051906;28;20181;-59
2021/03/07 01:26:59;;;;;;;1.40;0.20;;;1.50;87.20;;;;;;5052337;28;20934;-58
2021/03/07 01:29:25;;;;;;;1.87;0.67;;;1.40;88.00;;;;;;5050566;28;20181;-58
2021/03/07 01:31:51;;;;;;;1.40;0.20;;;1.40;89.50;;;;;;5060022;28;20216;-58
2021/03/07 01:34:16;;;;;;;1.45;0.20;;;1.30;90.20;;;;;;5057723;28;20200;-58
2021/03/07 01:36:42;;;;;;;12.17;11.33;;;1.20;90.10;;;;;;5054457;28;20185;-58
2021/03/07 01:39:07;;;;;;;1.50;0.20;;;1.20;90.30;;;;;;5054970;28;20188;-58
2021/03/07 01:41:33;;;;;;;1.40;0.20;;;1.20;90.80;;;;;;5056287;28;20239;-58
2021/03/07 01:43:58;;;;;;;1.40;0.20;;;1.20;90.80;;;;;;5055993;28;20208;-60
2021/03/07 01:46:25;;;;;;;1.40;0.20;;;1.30;90.70;;;;;;5057063;28;20193;-58
2021/03/07 01:48:51;;;;;;;1.83;0.85;;;1.30;91.00;;;;;;5056427;28;20189;-57
2021/03/07 01:51:17;;;;;;;1.45;0.20;;;1.30;91.40;;;;;;5056558;28;20204;-58
2021/03/07 01:53:43;;;;;;;4.47;1.27;;;1.20;91.60;;;;;;5055155;28;20205;-58
2021/03/07 01:56:10;;;;;;;1.43;0.20;;;1.20;92.00;;;;;;5056153;28;20190;-58
2021/03/07 01:58:37;;;;;;;1.40;0.20;;;1.20;92.60;;;;;;5054112;28;20444;-58
2021/03/07 02:01:05;;;;;;;1.40;0.20;;;1.20;92.30;;;;;;5051711;28;20323;-58
2021/03/07 02:03:31;;;;;;;1.45;0.20;;;1.10;92.40;;;;;;5054202;28;20204;-58
2021/03/07 02:05:57;;;;;;;1.43;0.20;;;1.10;92.50;;;;;;5057578;28;20656;-58
2021/03/07 02:08:23;;;;;;;1.75;1.00;;;1.10;92.80;;;;;;5054083;28;20185;-58
2021/03/07 02:10:52;;;;;;;1.40;0.20;;;1.00;92.30;;;;;;5055650;28;20216;-58
2021/03/07 02:13:24;;;;;;;1.40;0.20;;;1.10;92.50;;;;;;5044839;28;20209;-58
2021/03/07 02:15:53;;;;;;;1.50;0.55;;;1.10;92.50;;;;;;5057388;28;20209;-58
2021/03/07 02:18:19;;;;;;;1.50;0.30;;;1.10;92.20;;;;;;5056611;28;20207;-58
2021/03/07 02:20:55;;;;;;;1.50;0.20;;;1.20;92.00;;;;;;5056001;28;20215;-58
2021/03/07 02:23:29;;;;;;;1.45;0.20;;;1.20;92.00;;;;;;5055995;28;20227;-58
2021/03/07 02:25:55;;;;;;;1.40;0.20;;;1.30;91.70;;;;;;5051664;28;20239;-57
2021/03/07 02:28:23;;;;;;;1.40;0.20;;;1.30;91.40;;;;;;5067280;28;20193;-58
2021/03/07 02:30:49;;;;;;;1.40;0.20;;;1.40;91.40;;;;;;5068037;28;20204;-59
2021/03/07 02:33:20;;;;;;;1.40;0.20;;;1.50;90.60;;;;;;5068858;28;20205;-57
2021/03/07 02:35:58;;;;;;;1.50;0.52;;;1.40;90.20;;;;;;5073933;28;20425;-58
2021/03/07 02:38:25;;;;;;;1.42;0.20;;;1.40;90.10;;;;;;5071604;28;20192;-59
2021/03/07 02:40:56;;;;;;;1.48;0.20;;;1.40;90.00;;;;;;5069214;28;20215;-58
2021/03/07 02:43:22;;;;;;;1.45;0.20;;;1.40;90.00;;;;;;5068879;28;20201;-58
2021/03/07 02:45:50;;;;;;;19.98;18.20;;;1.30;89.50;;;;;;5064796;28;20203;-58
2021/03/07 02:48:21;;;;;;;1.40;0.20;;;1.30;89.90;;;;;;5058827;28;20185;-58
2021/03/07 02:50:48;;;;;;;1.42;0.20;;;1.30;89.60;;;;;;5055916;28;20189;-57
2021/03/07 02:53:17;;;;;;;1.42;0.20;;;1.40;89.40;;;;;;5056446;28;20205;-57
2021/03/07 02:55:47;;;;;;;1.40;0.20;;;1.30;89.50;;;;;;5053645;28;20185;-57
2021/03/07 02:58:16;;;;;;;1.50;0.47;;;1.40;89.80;;;;;;5048476;28;20200;-58
2021/03/07 03:00:49;;;;;;;1.40;0.20;;;1.30;90.10;;;;;;5094070;22;20220;-61
2021/03/07 03:03:15;;;;;;;1.40;0.20;;;1.30;90.10;;;;;;5085921;28;20184;-61
2021/03/07 03:05:42;;;;;;;1.50;0.40;;;1.30;90.10;;;;;;5093471;28;20741;-60
2021/03/07 03:08:08;;;;;;;1.40;0.20;;;1.20;90.10;;;;;;5086506;28;20184;-61
2021/03/07 03:10:35;;;;;;;1.40;0.20;;;1.10;90.40;;;;;;5091310;28;20283;-60
2021/03/07 03:13:01;;;;;;;1.40;0.20;;;1.10;90.60;;;;;;5093700;28;20184;-61
2021/03/07 03:15:29;;;;;;;1.50;0.40;;;1.00;90.70;;;;;;5089987;28;20312;-60
2021/03/07 03:17:55;;;;;;;1.42;0.30;;;1.00;90.70;;;;;;5092686;28;20627;-61
2021/03/07 03:20:21;;;;;;;1.50;0.30;;;1.00;90.70;;;;;;5092248;28;20215;-61
2021/03/07 03:22:50;;;;;;;1.45;0.20;;;1.00;90.90;;;;;;5088153;28;20442;-60
2021/03/07 03:25:16;;;;;;;1.48;0.20;;;0.90;90.70;;;;;;5092533;28;20188;-61
2021/03/07 03:27:41;;;;;;;1.40;0.20;;;1.00;91.00;;;;;;5092479;28;20184;-61
2021/03/07 03:30:10;;;;;;;1.50;0.20;;;1.00;90.80;;;;;;5091344;28;20547;-61
2021/03/07 03:32:36;;;;;;;1.40;0.20;;;1.00;90.90;;;;;;5090211;28;20274;-60
2021/03/07 03:35:06;;;;;;;1.50;0.20;;;1.00;90.90;;;;;;5091160;28;20258;-60
2021/03/07 03:37:31;;;;;;;1.42;0.20;;;1.00;90.90;;;;;;5091190;28;20176;-61
2021/03/07 03:39:57;;;;;;;1.50;0.50;;;1.00;91.00;;;;;;5093420;28;20192;-61
2021/03/07 03:42:23;;;;;;;1.50;0.20;;;1.00;91.20;;;;;;5091120;28;20210;-61
2021/03/07 03:44:50;;;;;;;1.50;0.20;;;0.90;91.40;;;;;;5090120;28;20525;-61
2021/03/07 03:47:16;;;;;;;1.60;0.60;;;0.80;91.80;;;;;;5091295;28;20199;-61
2021/03/07 03:49:58;;;;;;;1.50;0.20;;;0.80;92.10;;;;;;5087896;28;20192;-60
2021/03/07 03:52:24;;;;;;;1.48;0.20;;;0.80;92.20;;;;;;5088976;28;20239;-61
2021/03/07 03:55:05;;;;;;;1.50;0.40;;;0.80;92.30;;;;;;5092161;28;20680;-61
2021/03/07 03:57:33;;;;;;;1.45;0.20;;;0.90;92.50;;;;;;5091134;28;20561;-61
2021/03/07 04:00:06;;;;;;;1.50;0.30;;;0.80;92.80;;;;;;5089614;28;20180;-61
2021/03/07 04:02:34;;;;;;;1.50;0.20;;;0.80;93.10;;;;;;5093064;28;20207;-61
2021/03/07 04:05:05;;;;;;;1.60;0.55;;;0.80;93.20;;;;;;5088266;28;20233;-61
2021/03/07 04:07:31;;;;;;;1.80;1.02;;;0.70;93.50;;;;;;5088325;28;20194;-61
2021/03/07 04:09:56;;;;;;;1.50;0.20;;;0.60;93.80;;;;;;5093088;28;20188;-61
2021/03/07 04:12:23;;;;;;;1.40;0.20;;;0.50;94.00;;;;;;5089837;28;20225;-62
2021/03/07 04:14:50;;;;;;;1.50;0.40;;;0.50;94.10;;;;;;5089697;28;20275;-62
2021/03/07 04:17:21;;;;;;;1.42;0.20;;;0.50;94.20;;;;;;5093274;28;20547;-60
2021/03/07 04:19:47;;;;;;;1.45;0.20;;;0.50;94.20;;;;;;5091658;28;20167;-61
2021/03/07 04:22:15;;;;;;;1.48;0.20;;;0.50;94.50;;;;;;5090782;28;20196;-61
2021/03/07 04:24:40;;;;;;;1.50;0.20;;;0.50;94.50;;;;;;5092329;28;20695;-61
2021/03/07 04:27:07;;;;;;;1.50;0.20;;;0.50;94.70;;;;;;5091033;28;20191;-61
2021/03/07 04:29:32;;;;;;;1.42;0.20;;;0.50;95.00;;;;;;5090861;28;20199;-61
2021/03/07 04:31:58;;;;;;;1.50;0.20;;;0.50;95.30;;;;;;5094007;28;20596;-61
2021/03/07 04:34:24;;;;;;;3.23;2.93;;;0.40;95.40;;;;;;5089698;28;20955;-62
2021/03/07 04:36:51;;;;;;;1.50;0.30;;;0.30;95.90;;;;;;5090127;28;20183;-62
2021/03/07 04:39:17;;;;;;;1.48;0.20;;;0.30;96.50;;;;;;5085478;28;20176;-61
2021/03/07 04:41:42;;;;;;;1.40;0.20;;;0.20;96.90;;;;;;5086725;28;20266;-61
2021/03/07 04:44:08;;;;;;;1.47;0.20;;;0.20;97.20;;;;;;5091538;28;20242;-61
2021/03/07 04:46:34;;;;;;;1.90;1.53;;;0.20;97.30;;;;;;5085723;28;20188;-61
2021/03/07 04:48:59;;;;;;;1.47;0.20;;;0.20;97.30;;;;;;5088722;28;20203;-62
2021/03/07 04:51:25;;;;;;;1.47;0.20;;;0.20;97.70;;;;;;5088849;28;20211;-61
2021/03/07 04:53:50;;;;;;;1.47;0.20;;;0.20;98.10;;;;;;5090217;28;20198;-60
2021/03/07 04:56:16;;;;;;;1.70;0.63;;;0.30;98.00;;;;;;5090848;28;20183;-61
2021/03/07 04:58:42;;;;;;;1.43;0.20;;;0.30;98.10;;;;;;5106679;28;20190;-61
2021/03/07 05:01:08;;;;;;;7.78;2.25;;;0.30;98.10;;;;;;5099932;28;20859;-61
2021/03/07 05:03:33;;;;;;;1.50;0.30;;;0.20;98.40;;;;;;5093070;28;20172;-61
2021/03/07 05:05:59;;;;;;;1.43;0.20;;;0.20;98.70;;;;;;5091359;28;20183;-61
2021/03/07 05:08:25;;;;;;;1.50;0.40;;;0.20;98.70;;;;;;5094107;28;20519;-61
2021/03/07 05:10:52;;;;;;;2.63;2.42;;;0.20;98.70;;;;;;5098994;28;20214;-60
2021/03/07 05:13:18;;;;;;;1.45;0.20;;;0.20;98.70;;;;;;5079137;28;20172;-62
2021/03/07 05:15:43;;;;;;;1.50;0.20;;;0.20;98.60;;;;;;5094701;28;20700;-62
2021/03/07 05:18:09;;;;;;;1.50;0.20;;;0.20;99.10;;;;;;5099068;28;20194;-61
2021/03/07 05:20:35;;;;;;;1.47;0.20;;;0.30;98.70;;;;;;5097721;28;20200;-61
2021/03/07 05:23:00;;;;;;;1.40;0.20;;;0.30;98.60;;;;;;5095802;28;20205;-62
2021/03/07 05:25:26;;;;;;;1.47;0.20;;;0.30;98.50;;;;;;5098495;28;20438;-61
2021/03/07 05:27:52;;;;;;;1.43;0.20;;;0.40;98.10;;;;;;5101773;28;20183;-61
2021/03/07 05:30:19;;;;;;;1.50;0.20;;;0.40;97.80;;;;;;5097242;28;20291;-61
2021/03/07 05:32:44;;;;;;;1.50;0.50;;;0.50;97.70;;;;;;5096730;28;20214;-62
2021/03/07 05:35:10;;;;;;;1.43;0.20;;;0.50;97.50;;;;;;5077277;28;20561;-61
2021/03/07 05:37:36;;;;;;;1.48;0.20;;;0.50;97.40;;;;;;5097315;28;20298;-62
2021/03/07 05:40:02;;;;;;;1.50;0.20;;;0.40;97.40;;;;;;5098329;28;20298;-60
2021/03/07 05:42:29;;;;;;;1.50;0.20;;;0.40;97.50;;;;;;5095044;28;20176;-60
2021/03/07 05:44:55;;;;;;;1.88;1.27;;;0.50;97.50;;;;;;5096218;28;20266;-61
2021/03/07 05:47:21;;;;;;;1.50;0.20;;;0.50;97.40;;;;;;5097788;28;20263;-61
2021/03/07 05:49:46;;;;;;;1.43;0.20;;;0.50;97.70;;;;;;5092656;28;20954;-63
2021/03/07 05:52:13;;;;;;;1.50;0.40;;;0.30;98.20;;;;;;5090512;28;20203;-61
2021/03/07 05:54:38;;;;;;;1.70;0.57;;;0.30;98.50;;;;;;5091932;28;20184;-61
2021/03/07 05:57:06;;;;;;;1.50;0.20;;;0.30;98.30;;;;;;5092457;28;20283;-61
2021/03/07 05:59:35;;;;;;;1.80;0.82;;;0.10;98.90;;;;;;5092749;28;20990;-61
2021/03/07 06:02:00;;;;;;;1.42;0.20;;;0.10;99.90;;;;;;5099349;28;20708;-61
2021/03/07 06:04:26;;;;;;;1.50;0.20;;;0.10;99.20;;;;;;5095360;28;20183;-61
2021/03/07 06:06:51;;;;;;;1.50;0.20;;;0.10;99.50;;;;;;5095601;28;20185;-61
2021/03/07 06:09:27;;;;;;;1.43;0.20;;;0.20;98.80;;;;;;5099913;28;20192;-60
2021/03/07 06:11:55;;;;;;;1.50;0.20;;;0.20;98.50;;;;;;5095604;28;20214;-60
2021/03/07 06:14:33;;;;;;;3.67;0.60;;;0.20;98.60;;;;;;5095416;28;20179;-61
2021/03/07 06:17:12;;;;;;;1.45;0.20;;;0.20;98.90;;;;;;5096916;28;20179;-61
2021/03/07 06:19:57;;;;;;;1.50;0.20;;;0.20;98.80;;;;;;5095003;28;20195;-62
2021/03/07 06:22:23;;;;;;;1.42;0.20;;;0.30;98.60;;;;;;5092378;28;20715;-61
2021/03/07 06:24:48;;;;;;;1.50;0.20;;;0.40;98.30;;;;;;5091663;28;20278;-61
2021/03/07 06:27:18;;;;;;;2.43;0.97;;;0.40;98.80;;;;;;5094136;28;20188;-61
2021/03/07 06:30:05;;;;;;;1.40;0.20;;;0.20;99.40;;;;;;5097287;28;20550;-61
2021/03/07 06:32:33;;;;;;;1.50;0.20;;;0.20;99.30;;;;;;5098840;28;20722;-61
2021/03/07 06:34:59;;;;;;;1.50;0.20;;;0.20;99.30;;;;;;5110083;28;20183;-61
2021/03/07 06:37:26;;;;;;;1.47;0.20;;;0.20;99.50;;;;;;5110133;28;20187;-61
2021/03/07 06:39:52;;;;;;;1.90;1.05;;;0.10;99.90;;;;;;5095814;28;20180;-61
2021/03/07 06:42:18;;;;;;;4.55;2.22;;;0.10;99.80;;;;;;5093922;28;20192;-60
2021/03/07 06:45:01;;;;;;;1.60;0.40;;;0.10;99.50;;;;;;5095670;28;20180;-60
2021/03/07 06:47:28;;;;;;;1.60;0.30;;;0.10;99.60;;;;;;5095631;28;20184;-60
2021/03/07 06:50:07;;;;;;;1.50;0.30;;;0.10;99.90;;;;;;5093948;28;20195;-62
2021/03/07 06:52:33;;;;;;;1.48;0.20;;;0.20;99.90;;;;;;5096501;28;20204;-60
2021/03/07 06:55:11;;;;;;;1.50;0.20;;;0.20;99.90;;;;;;5107590;28;20187;-60
2021/03/07 06:57:37;;;;;;;3.35;2.13;;;0.20;99.90;;;;;;5105797;28;20186;-61
2021/03/07 07:00:05;;;;;;;1.50;0.20;;;0.20;99.90;;;;;;5110797;28;20160;-61
2021/03/07 07:02:31;;;;;;;1.50;0.20;;;0.10;99.90;;;;;;5105168;28;20592;-60
2021/03/07 07:04:56;;;;;;;1.50;0.20;;;0.20;99.90;;;;;;5095607;28;20187;-60
2021/03/07 07:07:23;;;;;;;1.47;0.37;;;0.20;99.90;;;;;;5095407;28;20214;-61
2021/03/07 07:09:58;;;;;;;1.50;0.30;;;0.20;99.90;;;;;;5095322;28;20184;-60
2021/03/07 07:12:26;;;;;;;1.50;0.20;;;0.10;99.90;;;;;;5095485;28;20276;-60
2021/03/07 07:15:11;;;;;;;1.40;0.20;;;0.10;99.90;;;;;;5094392;28;20233;-60
2021/03/07 07:17:37;;;;;;;2.63;2.38;;;0.10;99.90;;;;;;5092652;28;20278;-60
2021/03/07 07:20:06;;;;;;;1.40;0.20;;;0.10;99.90;;;;;;5090679;28;20820;-60
2021/03/07 07:22:31;;;;;;;1.50;0.20;;;0.10;99.90;;;;;;5091651;28;20212;-60
2021/03/07 07:24:58;;;;;;;1.47;0.20;;;0.10;99.90;;;;;;5093641;28;20179;-60
2021/03/07 07:27:23;;;;;;;1.50;0.40;;;0.10;99.90;;;;;;5090715;28;20554;-60
2021/03/07 07:29:49;;;;;;;1.47;0.20;;;0.20;99.90;;;;;;5093068;28;20190;-60
2021/03/07 07:32:23;;;;;;;1.47;0.20;;;0.20;99.90;;;;;;5091900;28;20226;-60
2021/03/07 07:34:54;;;;;;;1.50;0.20;;;0.20;99.90;;;;;;5090382;28;20176;-60
2021/03/07 07:37:41;;;;;;;1.45;0.20;;;0.40;99.90;;;;;;5092772;28;20273;-61
2021/03/07 07:40:07;;;;;;;1.50;0.20;;;0.50;99.90;;;;;;5092334;28;20550;-60
2021/03/07 07:42:35;;;;;;;1.50;0.20;;;0.50;99.90;;;;;;5089489;28;20191;-61
2021/03/07 07:45:09;;;;;;;2.38;1.55;;;0.60;99.90;;;;;;5092085;28;20180;-61
2021/03/07 07:47:48;;;;;;;2.95;0.90;;;0.60;99.90;;;;;;5092498;28;20280;-61
2021/03/07 07:50:29;;;;;;;1.50;0.20;;;0.80;99.90;;;;;;5088460;28;20690;-61
2021/03/07 07:53:15;;;;;;;1.73;0.80;;;0.90;99.90;;;;;;5091170;28;20677;-61
2021/03/07 07:55:43;;;;;;;1.50;0.20;;;1.00;99.90;;;;;;5079752;28;20184;-61
2021/03/07 07:58:09;;;;;;;1.40;0.20;;;1.10;99.90;;;;;;5089617;28;20247;-61
2021/03/07 08:00:51;;;;;;;1.70;0.50;;;1.20;99.90;;;;;;5092641;28;20219;-61
2021/03/07 08:03:29;;;;;;;2.38;1.48;;;1.20;99.70;;;;;;5092594;28;20418;-61
2021/03/07 08:05:55;;;;;;;1.48;0.20;;;1.30;99.20;;;;;;5090303;28;20233;-61
2021/03/07 08:08:39;;;;;;;4.03;3.70;;;1.40;99.00;;;;;;5091311;28;20192;-61
2021/03/07 08:11:28;;;;;;;1.80;0.75;;;1.50;98.90;;;;;;5090897;28;20208;-61
2021/03/07 08:13:55;;;;;;;1.50;0.40;;;1.50;98.70;;;;;;5082549;28;20193;-61
2021/03/07 08:16:42;;;;;;;3.33;2.20;;;1.60;98.00;;;;;;5090648;28;20200;-61
2021/03/07 08:19:12;;;;;;;1.50;0.20;;;1.60;97.40;;;;;;5074821;28;20206;-61
2021/03/07 08:21:59;;;;;;;1.50;0.30;;;1.70;97.30;;;;;;5089554;28;20539;-61
2021/03/07 08:24:52;;;;;;;1.50;0.20;;;1.80;97.10;;;;;;5089248;28;20192;-61
2021/03/07 08:27:38;;;;;;;1.55;0.30;;;1.90;96.80;;;;;;5088119;28;20191;-61
2021/03/07 08:30:13;;;;;;;1.70;0.60;;;1.90;97.10;;;;;;5091386;28;20187;-61
2021/03/07 08:32:49;;;;;;;1.50;0.20;;;1.90;97.30;;;;;;5093608;28;20288;-61
2021/03/07 08:35:22;;;;;;;1.50;0.20;;;1.90;97.10;;;;;;5091688;28;20642;-61
2021/03/07 08:38:20;;;;;;;1.50;0.20;;;2.00;97.20;;;;;;5088845;28;21116;-61
2021/03/07 08:40:56;;;;;;;1.50;0.20;;;2.00;97.40;;;;;;5048185;28;20237;-61
2021/03/07 08:43:22;;;;;;;1.50;0.20;;;2.10;97.50;;;;;;5090115;28;20179;-61
2021/03/07 08:46:08;;;;;;;1.50;0.20;;;2.10;97.50;;;;;;5089838;28;20271;-61
2021/03/07 08:48:35;;;;;;;1.50;0.40;;;2.20;96.80;;;;;;5091931;28;20673;-61
2021/03/07 08:51:01;;;;;;;1.50;0.20;;;2.20;96.60;;;;;;5090089;28;20808;-61
2021/03/07 08:53:29;;;;;;;3.05;1.17;;;2.30;96.20;;;;;;5087279;28;20181;-61
2021/03/07 08:55:55;;;;;;;1.50;0.20;;;2.30;96.00;;;;;;5074423;28;20237;-61
2021/03/07 08:58:21;;;;;;;1.60;0.47;;;2.40;95.90;;;;;;5087721;28;20186;-61
2021/03/07 09:00:50;;;;;;;2.72;0.90;;;2.40;96.20;;;;;;5090267;28;20680;-62
2021/03/07 09:03:17;;;;;;;1.50;0.20;;;2.40;96.20;;;;;;5095485;28;20179;-62
2021/03/07 09:05:44;;;;;;;1.50;0.30;;;2.50;96.00;;;;;;5090946;28;20225;-61
2021/03/07 09:08:09;;;;;;;1.50;0.20;;;2.60;95.80;;;;;;5089051;28;20188;-62
2021/03/07 09:10:47;;;;;;;1.50;0.30;;;2.60;95.60;;;;;;5097744;28;20202;-61
2021/03/07 09:13:17;;;;;;;1.50;0.20;;;2.70;96.00;;;;;;5088576;28;20172;-62
2021/03/07 09:15:53;;;;;;;1.50;0.22;;;2.80;95.30;;;;;;5090453;28;20271;-63
2021/03/07 09:18:21;;;;;;;4.60;3.70;;;2.90;95.00;;;;;;5092958;28;20261;-62
2021/03/07 09:20:57;;;;;;;1.50;0.20;;;2.90;94.90;;;;;;5088126;28;20689;-62
2021/03/07 09:23:30;;;;;;;1.50;0.30;;;3.00;94.50;;;;;;5085012;28;20653;-60
2021/03/07 09:25:58;;;;;;;1.50;0.20;;;3.10;94.20;;;;;;5092196;28;20215;-60
2021/03/07 09:28:41;;;;;;;1.75;0.50;;;3.10;93.70;;;;;;5090932;28;20547;-60
2021/03/07 09:31:14;;;;;;;1.50;0.30;;;3.20;93.90;;;;;;5087075;28;20243;-60
2021/03/07 09:33:50;;;;;;;1.50;0.20;;;3.30;93.10;;;;;;5091348;28;20203;-60
2021/03/07 09:36:17;;;;;;;1.50;0.20;;;3.30;92.90;;;;;;5090719;28;20164;-60
2021/03/07 09:38:53;;;;;;;1.50;0.20;;;3.40;92.50;;;;;;5086533;28;20187;-61
2021/03/07 09:41:33;;;;;;;1.50;0.20;;;3.40;91.90;;;;;;5091761;28;20251;-61
2021/03/07 09:44:01;;;;;;;1.50;0.20;;;3.50;91.50;;;;;;5090004;28;20203;-60
2021/03/07 09:46:28;;;;;;;1.50;0.20;;;3.60;91.50;;;;;;5070730;28;20277;-61
2021/03/07 09:49:05;;;;;;;1.50;0.20;;;3.70;91.40;;;;;;5091687;28;20169;-60
2021/03/07 09:51:33;;;;;;;1.50;0.20;;;3.70;91.00;;;;;;5089803;28;20214;-60
2021/03/07 09:53:59;;;;;;;5.10;4.78;;;3.80;90.90;;;;;;5091918;28;20631;-60
2021/03/07 09:56:33;;;;;;;1.55;0.30;;;3.80;90.10;;;;;;5092852;28;20218;-61
2021/03/07 09:59:13;;;;;;;1.50;0.20;;;3.90;88.90;;;;;;5095204;28;20262;-61
2021/03/07 10:01:46;;;;;;;1.50;0.20;;;4.00;88.80;;;;;;5093985;28;20578;-61
2021/03/07 10:04:27;;;;;;;1.50;0.20;;;4.00;87.70;;;;;;5098279;28;20180;-60
2021/03/07 10:06:53;;;;;;;1.50;0.20;;;4.10;87.10;;;;;;5103069;28;20184;-61
2021/03/07 10:09:18;;;;;;;1.60;0.40;;;4.20;85.00;;;;;;5099994;28;20203;-62
2021/03/07 10:12:05;;;;;;;2.73;0.67;;;4.20;84.00;;;;;;5100175;28;20226;-61
2021/03/07 10:14:31;;;;;;;1.50;0.20;;;4.30;84.00;;;;;;5097028;28;20188;-61
2021/03/07 10:16:58;;;;;;;1.45;0.20;;;4.30;83.50;;;;;;5090941;28;20181;-61
2021/03/07 10:19:34;;;;;;;2.08;0.65;;;4.30;84.30;;;;;;5093591;28;20279;-61
2021/03/07 10:22:03;;;;;;;1.70;0.50;;;4.40;82.80;;;;;;5093541;28;20286;-61
2021/03/07 10:24:31;;;;;;;1.50;0.20;;;4.40;81.30;;;;;;5093229;28;20196;-61
2021/03/07 10:27:06;;;;;;;1.45;0.20;;;4.40;80.50;;;;;;5095620;28;20340;-60
2021/03/07 10:29:35;;;;;;;1.80;0.40;;;4.60;80.10;;;;;;5099771;28;20552;-61
2021/03/07 10:32:09;;;;;;;1.50;0.20;;;4.60;79.70;;;;;;5088015;28;20273;-62
2021/03/07 10:34:37;;;;;;;1.50;0.20;;;4.70;80.00;;;;;;5093320;28;20675;-61
2021/03/07 10:37:04;;;;;;;1.50;0.20;;;4.70;79.40;;;;;;5094651;28;20190;-61
2021/03/07 10:39:30;;;;;;;1.45;0.20;;;4.90;78.40;;;;;;5093377;28;20185;-61
2021/03/07 10:42:03;;;;;;;1.47;0.20;;;4.90;78.40;;;;;;5094273;28;20206;-61
2021/03/07 10:44:29;;;;;;;1.48;0.20;;;5.00;75.90;;;;;;5092729;28;20217;-61
2021/03/07 10:46:54;;;;;;;1.50;0.30;;;5.10;75.40;;;;;;5091486;28;20207;-61
2021/03/07 10:49:20;;;;;;;1.70;0.83;;;5.20;74.20;;;;;;5094473;28;20183;-61
2021/03/07 10:51:45;;;;;;;1.70;0.47;;;5.30;73.80;;;;;;5092015;28;20222;-61
2021/03/07 10:54:11;;;;;;;1.40;0.20;;;5.30;73.00;;;;;;5090888;28;20168;-59
2021/03/07 10:56:38;;;;;;;1.43;0.20;;;5.40;72.20;;;;;;5093205;28;20667;-60
2021/03/07 10:59:04;;;;;;;1.45;0.20;;;5.50;72.90;;;;;;5092222;28;20933;-61
2021/03/07 11:01:30;;;;;;;1.47;0.20;;;5.50;73.80;;;;;;5093193;28;20227;-62
2021/03/07 11:03:55;;;;;;;2.00;1.17;;;5.60;72.90;;;;;;5092950;28;20457;-61
2021/03/07 11:06:21;;;;;;;1.50;0.20;;;5.70;72.50;;;;;;5091626;28;20192;-60
2021/03/07 11:08:48;;;;;;;1.50;0.27;;;5.70;71.60;;;;;;5093570;28;20470;-61
2021/03/07 11:11:14;;;;;;;10.57;9.50;;;5.70;71.60;;;;;;5092049;28;20290;-61
2021/03/07 11:13:39;;;;;;;1.43;0.20;;;5.70;71.50;;;;;;5094058;28;20877;-61
2021/03/07 11:16:05;;;;;;;1.47;0.20;;;5.80;69.60;;;;;;5096667;28;20442;-61
2021/03/07 11:18:31;;;;;;;1.47;0.20;;;5.80;68.30;;;;;;5093876;28;20188;-60
2021/03/07 11:20:56;;;;;;;1.80;0.80;;;5.90;67.60;;;;;;5091682;28;20983;-61
2021/03/07 11:23:22;;;;;;;1.40;0.20;;;5.90;67.10;;;;;;5075091;28;20184;-61
2021/03/07 11:25:48;;;;;;;1.43;0.20;;;5.90;68.30;;;;;;5092974;28;20192;-60
2021/03/07 11:28:13;;;;;;;1.40;0.20;;;6.00;68.60;;;;;;5088093;28;20193;-61
2021/03/07 11:30:39;;;;;;;1.43;0.20;;;6.00;67.80;;;;;;5099800;28;20260;-60
2021/03/07 11:33:05;;;;;;;1.50;0.20;;;6.00;66.70;;;;;;5094077;28;20229;-60
2021/03/07 11:35:30;;;;;;;1.48;0.20;;;6.10;66.60;;;;;;5091956;28;20603;-61
2021/03/07 11:37:58;;;;;;;1.50;0.20;;;6.10;66.80;;;;;;5094618;28;20207;-60
2021/03/07 11:40:24;;;;;;;1.48;0.20;;;6.20;66.60;;;;;;5091042;28;20570;-60
2021/03/07 11:42:49;;;;;;;1.75;0.40;;;6.20;66.50;;;;;;5091247;28;20210;-60
2021/03/07 11:45:15;;;;;;;1.43;0.20;;;6.30;66.50;;;;;;5095732;28;20647;-61
2021/03/07 11:47:41;;;;;;;2.05;0.40;;;6.30;66.40;;;;;;5073420;28;20183;-60
2021/03/07 11:50:08;;;;;;;1.43;0.20;;;6.40;63.90;;;;;;5093249;28;20184;-61
2021/03/07 11:52:33;;;;;;;2.97;1.73;;;6.40;63.40;;;;;;5092962;28;20987;-61
2021/03/07 11:54:59;;;;;;;1.40;0.20;;;6.40;64.10;;;;;;5093923;28;20221;-62
2021/03/07 11:57:25;;;;;;;1.50;0.30;;;6.50;63.60;;;;;;5091031;28;20184;-61
2021/03/07 11:59:50;;;;;;;12.50;11.30;;;6.50;63.60;;;;;;5090089;28;20191;-61
2021/03/07 12:02:16;;;;;;;1.43;0.20;;;6.50;63.60;;;;;;5093727;28;20730;-62
2021/03/07 12:04:41;;;;;;;1.40;0.20;;;6.60;63.20;;;;;;5091816;28;20188;-61
2021/03/07 12:07:07;;;;;;;1.40;0.20;;;6.70;62.60;;;;;;5090691;28;20184;-61
2021/03/07 12:09:33;;;;;;;4.53;1.07;;;6.70;62.00;;;;;;5089668;28;20223;-62
2021/03/07 12:11:59;;;;;;;1.80;1.07;;;6.80;62.30;;;;;;5091201;28;20188;-61
2021/03/07 12:14:25;;;;;;;1.50;0.50;;;6.80;62.60;;;;;;5089486;28;20430;-61
2021/03/07 12:16:50;;;;;;;1.40;0.20;;;6.80;62.70;;;;;;5087013;28;20766;-62
2021/03/07 12:19:16;;;;;;;1.40;0.20;;;6.90;61.20;;;;;;5090736;28;20430;-62
2021/03/07 12:21:41;;;;;;;1.47;0.20;;;6.90;61.00;;;;;;5090164;28;20236;-63
2021/03/07 12:24:08;;;;;;;1.40;0.20;;;7.00;61.00;;;;;;5073509;28;20656;-61
2021/03/07 12:26:33;;;;;;;1.45;0.20;;;7.00;60.50;;;;;;5090736;28;20517;-62
2021/03/07 12:28:59;;;;;;;1.40;0.20;;;7.10;59.60;;;;;;5088194;28;20267;-63
2021/03/07 12:31:24;;;;;;;1.40;0.20;;;7.20;59.20;;;;;;5092954;28;20639;-62
2021/03/07 12:33:50;;;;;;;5.37;1.90;;;7.20;58.70;;;;;;5092283;28;20836;-62
2021/03/07 12:36:16;;;;;;;1.40;0.20;;;7.30;58.40;;;;;;5090418;28;20194;-63
2021/03/07 12:38:41;;;;;;;1.53;0.47;;;7.40;57.20;;;;;;5092152;28;20632;-62
2021/03/07 12:41:07;;;;;;;1.40;0.30;;;7.40;56.90;;;;;;5088819;28;20206;-62
2021/03/07 12:43:32;;;;;;;1.40;0.20;;;7.40;55.70;;;;;;5089699;28;20188;-62
2021/03/07 12:45:58;;;;;;;1.40;0.20;;;7.40;55.30;;;;;;5092465;28;20294;-62
2021/03/07 12:48:23;;;;;;;1.40;0.20;;;7.30;55.70;;;;;;5088048;28;20315;-62
2021/03/07 12:50:49;;;;;;;1.40;0.20;;;7.40;55.50;;;;;;5095307;28;20275;-62
2021/03/07 12:53:14;;;;;;;1.53;0.40;;;7.40;55.60;;;;;;5094047;28;20171;-62
2021/03/07 12:55:40;;;;;;;1.40;0.20;;;7.50;54.00;;;;;;5090658;28;20187;-63
2021/03/07 12:58:05;;;;;;;1.40;0.20;;;7.50;54.40;;;;;;5090445;28;20262;-63
2021/03/07 13:00:31;;;;;;;1.40;0.20;;;7.50;54.90;;;;;;5087125;28;20260;-62
2021/03/07 13:02:56;;;;;;;1.40;0.20;;;7.50;53.90;;;;;;5088899;28;20202;-60
2021/03/07 13:05:22;;;;;;;1.40;0.30;;;7.60;53.40;;;;;;5090877;28;20191;-63